sensor_id;sensor_type;location;lat;lon;timestamp;P1;durP1;ratioP1;P2;durP2;ratioP2
53654;SDS011;39558;52.028;8.536;2023-07-02T00:00:06;1.25;;;0.73;;
53654;SDS011;39558;52.028;8.536;2023-07-02T00:02:33;1.20;;;0.82;;
53654;SDS011;39558;52.028;8.536;2023-07-02T00:04:59;1.77;;;1.10;;
53654;SDS011;39558;52.028;8.536;2023-07-02T00:07:25;2.17;;;0.93;;
53654;SDS011;39558;52.028;8.536;2023-07-02T00:09:51;1.50;;;0.85;;
53654;SDS011;39558;52.028;8.536;2023-07-02T00:12:17;1.98;;;1.10;;
53654;SDS011;39558;52.028;8.536;2023-07-02T00:14:43;2.50;;;0.90;;
53654;SDS011;39558;52.028;8.536;2023-07-02T00:17:09;1.90;;;0.82;;
53654;SDS011;39558;52.028;8.536;2023-07-02T00:19:39;1.65;;;0.80;;
53654;SDS011;39558;52.028;8.536;2023-07-02T00:22:06;1.60;;;1.00;;
53654;SDS011;39558;52.028;8.536;2023-07-02T00:24:32;1.02;;;0.68;;
53654;SDS011;39558;52.028;8.536;2023-07-02T00:26:58;1.92;;;0.93;;
53654;SDS011;39558;52.028;8.536;2023-07-02T00:29:24;1.33;;;0.73;;
53654;SDS011;39558;52.028;8.536;2023-07-02T00:31:50;1.83;;;1.00;;
53654;SDS011;39558;52.028;8.536;2023-07-02T00:34:15;1.50;;;0.60;;
53654;SDS011;39558;52.028;8.536;2023-07-02T00:36:41;1.08;;;0.75;;
53654;SDS011;39558;52.028;8.536;2023-07-02T00:39:07;1.20;;;0.75;;
53654;SDS011;39558;52.028;8.536;2023-07-02T00:41:33;1.90;;;0.80;;
53654;SDS011;39558;52.028;8.536;2023-07-02T00:43:59;2.13;;;0.70;;
53654;SDS011;39558;52.028;8.536;2023-07-02T00:46:25;2.10;;;1.17;;
53654;SDS011;39558;52.028;8.536;2023-07-02T00:48:55;1.63;;;0.77;;
53654;SDS011;39558;52.028;8.536;2023-07-02T00:51:24;1.45;;;0.90;;
53654;SDS011;39558;52.028;8.536;2023-07-02T00:56:17;1.48;;;0.75;;
53654;SDS011;39558;52.028;8.536;2023-07-02T00:58:44;1.40;;;0.70;;
53654;SDS011;39558;52.028;8.536;2023-07-02T01:01:22;1.45;;;0.85;;
53654;SDS011;39558;52.028;8.536;2023-07-02T01:03:50;1.15;;;0.60;;
53654;SDS011;39558;52.028;8.536;2023-07-02T01:06:23;1.48;;;0.85;;
53654;SDS011;39558;52.028;8.536;2023-07-02T01:08:53;0.88;;;0.57;;
53654;SDS011;39558;52.028;8.536;2023-07-02T01:11:19;1.15;;;0.70;;
53654;SDS011;39558;52.028;8.536;2023-07-02T01:13:45;2.80;;;1.02;;
53654;SDS011;39558;52.028;8.536;2023-07-02T01:16:11;1.88;;;0.90;;
53654;SDS011;39558;52.028;8.536;2023-07-02T01:18:37;1.15;;;0.80;;
53654;SDS011;39558;52.028;8.536;2023-07-02T01:21:04;2.05;;;1.05;;
53654;SDS011;39558;52.028;8.536;2023-07-02T01:23:31;1.77;;;0.73;;
53654;SDS011;39558;52.028;8.536;2023-07-02T01:25:57;1.83;;;0.90;;
53654;SDS011;39558;52.028;8.536;2023-07-02T01:28:24;1.60;;;0.85;;
53654;SDS011;39558;52.028;8.536;2023-07-02T01:30:50;1.67;;;0.85;;
53654;SDS011;39558;52.028;8.536;2023-07-02T01:33:16;1.17;;;0.68;;
53654;SDS011;39558;52.028;8.536;2023-07-02T01:35:41;1.50;;;0.70;;
53654;SDS011;39558;52.028;8.536;2023-07-02T01:38:07;1.35;;;0.63;;
53654;SDS011;39558;52.028;8.536;2023-07-02T01:40:33;1.23;;;0.75;;
53654;SDS011;39558;52.028;8.536;2023-07-02T01:42:59;1.27;;;0.82;;
53654;SDS011;39558;52.028;8.536;2023-07-02T01:45:25;2.58;;;0.88;;
53654;SDS011;39558;52.028;8.536;2023-07-02T01:47:51;1.17;;;0.60;;
53654;SDS011;39558;52.028;8.536;2023-07-02T01:50:17;1.85;;;1.10;;
53654;SDS011;39558;52.028;8.536;2023-07-02T01:52:43;1.52;;;0.98;;
53654;SDS011;39558;52.028;8.536;2023-07-02T01:55:09;2.13;;;0.70;;
53654;SDS011;39558;52.028;8.536;2023-07-02T01:57:35;1.23;;;0.70;;
53654;SDS011;39558;52.028;8.536;2023-07-02T02:00:00;1.02;;;0.70;;
53654;SDS011;39558;52.028;8.536;2023-07-02T02:02:26;2.15;;;1.05;;
53654;SDS011;39558;52.028;8.536;2023-07-02T02:04:52;1.48;;;0.60;;
53654;SDS011;39558;52.028;8.536;2023-07-02T02:07:18;1.90;;;1.00;;
53654;SDS011;39558;52.028;8.536;2023-07-02T02:09:44;2.20;;;1.20;;
53654;SDS011;39558;52.028;8.536;2023-07-02T02:12:10;1.88;;;1.00;;
53654;SDS011;39558;52.028;8.536;2023-07-02T02:14:36;1.65;;;0.70;;
53654;SDS011;39558;52.028;8.536;2023-07-02T02:17:01;2.67;;;1.33;;
53654;SDS011;39558;52.028;8.536;2023-07-02T02:19:27;1.55;;;0.98;;
53654;SDS011;39558;52.028;8.536;2023-07-02T02:21:53;1.58;;;0.93;;
53654;SDS011;39558;52.028;8.536;2023-07-02T02:24:19;1.52;;;0.75;;
53654;SDS011;39558;52.028;8.536;2023-07-02T02:26:45;1.67;;;1.05;;
53654;SDS011;39558;52.028;8.536;2023-07-02T02:29:11;1.77;;;0.95;;
53654;SDS011;39558;52.028;8.536;2023-07-02T02:31:37;1.23;;;0.80;;
53654;SDS011;39558;52.028;8.536;2023-07-02T02:34:05;1.33;;;0.73;;
53654;SDS011;39558;52.028;8.536;2023-07-02T02:36:31;1.63;;;0.85;;
53654;SDS011;39558;52.028;8.536;2023-07-02T02:38:57;1.40;;;0.90;;
53654;SDS011;39558;52.028;8.536;2023-07-02T02:41:23;1.75;;;1.02;;
53654;SDS011;39558;52.028;8.536;2023-07-02T02:43:49;1.73;;;0.98;;
53654;SDS011;39558;52.028;8.536;2023-07-02T02:46:19;2.30;;;1.00;;
53654;SDS011;39558;52.028;8.536;2023-07-02T02:48:46;1.98;;;1.08;;
53654;SDS011;39558;52.028;8.536;2023-07-02T02:51:12;1.92;;;1.05;;
53654;SDS011;39558;52.028;8.536;2023-07-02T02:53:38;1.63;;;1.13;;
53654;SDS011;39558;52.028;8.536;2023-07-02T02:56:04;1.15;;;0.80;;
53654;SDS011;39558;52.028;8.536;2023-07-02T02:58:29;1.50;;;0.90;;
53654;SDS011;39558;52.028;8.536;2023-07-02T03:00:55;2.03;;;1.10;;
53654;SDS011;39558;52.028;8.536;2023-07-02T03:03:21;1.42;;;0.90;;
53654;SDS011;39558;52.028;8.536;2023-07-02T03:05:49;2.08;;;1.05;;
53654;SDS011;39558;52.028;8.536;2023-07-02T03:08:15;1.73;;;1.10;;
53654;SDS011;39558;52.028;8.536;2023-07-02T03:10:41;1.25;;;0.90;;
53654;SDS011;39558;52.028;8.536;2023-07-02T03:13:07;2.40;;;1.05;;
53654;SDS011;39558;52.028;8.536;2023-07-02T03:15:33;2.25;;;0.93;;
53654;SDS011;39558;52.028;8.536;2023-07-02T03:17:59;1.52;;;0.85;;
53654;SDS011;39558;52.028;8.536;2023-07-02T03:20:25;1.20;;;0.80;;
53654;SDS011;39558;52.028;8.536;2023-07-02T03:22:50;1.55;;;1.08;;
53654;SDS011;39558;52.028;8.536;2023-07-02T03:25:16;2.28;;;1.05;;
53654;SDS011;39558;52.028;8.536;2023-07-02T03:27:42;1.45;;;0.75;;
53654;SDS011;39558;52.028;8.536;2023-07-02T03:30:08;2.03;;;1.00;;
53654;SDS011;39558;52.028;8.536;2023-07-02T03:32:34;1.80;;;1.00;;
53654;SDS011;39558;52.028;8.536;2023-07-02T03:35:00;1.73;;;1.08;;
53654;SDS011;39558;52.028;8.536;2023-07-02T03:37:26;1.20;;;0.60;;
53654;SDS011;39558;52.028;8.536;2023-07-02T03:39:52;2.83;;;0.90;;
53654;SDS011;39558;52.028;8.536;2023-07-02T03:42:18;1.42;;;0.88;;
53654;SDS011;39558;52.028;8.536;2023-07-02T03:44:44;2.25;;;0.90;;
53654;SDS011;39558;52.028;8.536;2023-07-02T03:47:10;1.45;;;0.77;;
53654;SDS011;39558;52.028;8.536;2023-07-02T03:49:37;1.77;;;0.90;;
53654;SDS011;39558;52.028;8.536;2023-07-02T03:52:03;2.05;;;1.02;;
53654;SDS011;39558;52.028;8.536;2023-07-02T03:54:29;1.75;;;1.00;;
53654;SDS011;39558;52.028;8.536;2023-07-02T03:56:55;1.23;;;0.90;;
53654;SDS011;39558;52.028;8.536;2023-07-02T03:59:21;1.92;;;0.98;;
53654;SDS011;39558;52.028;8.536;2023-07-02T04:01:47;1.35;;;0.80;;
53654;SDS011;39558;52.028;8.536;2023-07-02T04:04:13;2.03;;;1.10;;
53654;SDS011;39558;52.028;8.536;2023-07-02T04:06:38;1.05;;;0.77;;
53654;SDS011;39558;52.028;8.536;2023-07-02T04:09:04;2.67;;;0.73;;
53654;SDS011;39558;52.028;8.536;2023-07-02T04:11:30;1.65;;;0.93;;
53654;SDS011;39558;52.028;8.536;2023-07-02T04:13:56;3.10;;;1.35;;
53654;SDS011;39558;52.028;8.536;2023-07-02T04:16:22;3.30;;;0.80;;
53654;SDS011;39558;52.028;8.536;2023-07-02T04:18:48;3.72;;;1.30;;
53654;SDS011;39558;52.028;8.536;2023-07-02T04:21:13;2.28;;;1.10;;
53654;SDS011;39558;52.028;8.536;2023-07-02T04:23:39;1.45;;;0.98;;
53654;SDS011;39558;52.028;8.536;2023-07-02T04:26:05;1.23;;;0.70;;
53654;SDS011;39558;52.028;8.536;2023-07-02T04:28:31;1.73;;;1.13;;
53654;SDS011;39558;52.028;8.536;2023-07-02T04:30:57;1.35;;;0.80;;
53654;SDS011;39558;52.028;8.536;2023-07-02T04:33:23;1.20;;;0.70;;
53654;SDS011;39558;52.028;8.536;2023-07-02T04:35:49;1.65;;;1.00;;
53654;SDS011;39558;52.028;8.536;2023-07-02T04:38:15;1.33;;;0.90;;
53654;SDS011;39558;52.028;8.536;2023-07-02T04:40:41;1.92;;;0.80;;
53654;SDS011;39558;52.028;8.536;2023-07-02T04:43:09;1.95;;;1.08;;
53654;SDS011;39558;52.028;8.536;2023-07-02T04:45:35;2.38;;;1.15;;
53654;SDS011;39558;52.028;8.536;2023-07-02T04:48:02;1.90;;;1.00;;
53654;SDS011;39558;52.028;8.536;2023-07-02T04:50:28;1.17;;;0.80;;
53654;SDS011;39558;52.028;8.536;2023-07-02T04:52:54;1.05;;;0.77;;
53654;SDS011;39558;52.028;8.536;2023-07-02T04:55:20;1.90;;;0.90;;
53654;SDS011;39558;52.028;8.536;2023-07-02T04:57:46;2.10;;;0.77;;
53654;SDS011;39558;52.028;8.536;2023-07-02T05:00:12;1.42;;;1.10;;
53654;SDS011;39558;52.028;8.536;2023-07-02T05:02:39;2.50;;;1.00;;
53654;SDS011;39558;52.028;8.536;2023-07-02T05:05:05;1.83;;;1.08;;
53654;SDS011;39558;52.028;8.536;2023-07-02T05:07:31;1.30;;;0.90;;
53654;SDS011;39558;52.028;8.536;2023-07-02T05:09:58;2.03;;;0.93;;
53654;SDS011;39558;52.028;8.536;2023-07-02T05:12:24;1.45;;;0.82;;
53654;SDS011;39558;52.028;8.536;2023-07-02T05:14:49;1.50;;;0.82;;
53654;SDS011;39558;52.028;8.536;2023-07-02T05:17:15;2.30;;;0.80;;
53654;SDS011;39558;52.028;8.536;2023-07-02T05:19:41;1.35;;;0.80;;
53654;SDS011;39558;52.028;8.536;2023-07-02T05:22:10;0.93;;;0.70;;
53654;SDS011;39558;52.028;8.536;2023-07-02T05:24:36;0.80;;;0.60;;
53654;SDS011;39558;52.028;8.536;2023-07-02T05:27:02;1.30;;;0.85;;
53654;SDS011;39558;52.028;8.536;2023-07-02T05:29:28;1.10;;;0.70;;
53654;SDS011;39558;52.028;8.536;2023-07-02T05:31:57;1.35;;;0.75;;
53654;SDS011;39558;52.028;8.536;2023-07-02T05:34:23;2.58;;;0.98;;
53654;SDS011;39558;52.028;8.536;2023-07-02T05:36:49;1.33;;;0.85;;
53654;SDS011;39558;52.028;8.536;2023-07-02T05:39:15;2.53;;;1.23;;
53654;SDS011;39558;52.028;8.536;2023-07-02T05:41:41;1.40;;;0.63;;
53654;SDS011;39558;52.028;8.536;2023-07-02T05:44:06;1.58;;;0.82;;
53654;SDS011;39558;52.028;8.536;2023-07-02T05:46:32;1.30;;;0.77;;
53654;SDS011;39558;52.028;8.536;2023-07-02T05:48:58;1.10;;;0.70;;
53654;SDS011;39558;52.028;8.536;2023-07-02T05:51:25;1.85;;;0.90;;
53654;SDS011;39558;52.028;8.536;2023-07-02T05:53:51;1.40;;;0.70;;
53654;SDS011;39558;52.028;8.536;2023-07-02T05:56:17;2.03;;;0.80;;
53654;SDS011;39558;52.028;8.536;2023-07-02T05:58:43;1.58;;;0.80;;
53654;SDS011;39558;52.028;8.536;2023-07-02T06:01:09;2.30;;;0.98;;
53654;SDS011;39558;52.028;8.536;2023-07-02T06:03:35;2.83;;;0.80;;
53654;SDS011;39558;52.028;8.536;2023-07-02T06:06:02;1.85;;;0.80;;
53654;SDS011;39558;52.028;8.536;2023-07-02T06:08:28;3.35;;;0.80;;
53654;SDS011;39558;52.028;8.536;2023-07-02T06:10:54;0.93;;;0.52;;
53654;SDS011;39558;52.028;8.536;2023-07-02T06:13:20;3.15;;;0.80;;
53654;SDS011;39558;52.028;8.536;2023-07-02T06:15:46;1.63;;;0.77;;
53654;SDS011;39558;52.028;8.536;2023-07-02T06:18:12;1.70;;;0.82;;
53654;SDS011;39558;52.028;8.536;2023-07-02T06:20:38;1.35;;;0.85;;
53654;SDS011;39558;52.028;8.536;2023-07-02T06:23:03;1.17;;;0.80;;
53654;SDS011;39558;52.028;8.536;2023-07-02T06:25:29;1.63;;;0.80;;
53654;SDS011;39558;52.028;8.536;2023-07-02T06:27:59;1.42;;;0.70;;
53654;SDS011;39558;52.028;8.536;2023-07-02T06:30:25;2.00;;;1.02;;
53654;SDS011;39558;52.028;8.536;2023-07-02T06:32:51;1.27;;;0.77;;
53654;SDS011;39558;52.028;8.536;2023-07-02T06:35:17;1.60;;;0.70;;
53654;SDS011;39558;52.028;8.536;2023-07-02T06:37:43;1.75;;;0.93;;
53654;SDS011;39558;52.028;8.536;2023-07-02T06:40:09;1.83;;;0.90;;
53654;SDS011;39558;52.028;8.536;2023-07-02T06:42:35;1.48;;;0.90;;
53654;SDS011;39558;52.028;8.536;2023-07-02T06:45:01;1.58;;;0.90;;
53654;SDS011;39558;52.028;8.536;2023-07-02T06:47:27;1.40;;;0.88;;
53654;SDS011;39558;52.028;8.536;2023-07-02T06:49:53;2.20;;;0.80;;
53654;SDS011;39558;52.028;8.536;2023-07-02T06:52:19;1.70;;;0.80;;
53654;SDS011;39558;52.028;8.536;2023-07-02T06:54:45;1.58;;;0.70;;
53654;SDS011;39558;52.028;8.536;2023-07-02T06:57:12;1.70;;;1.00;;
53654;SDS011;39558;52.028;8.536;2023-07-02T06:59:38;1.75;;;0.85;;
53654;SDS011;39558;52.028;8.536;2023-07-02T07:02:04;1.98;;;0.95;;
53654;SDS011;39558;52.028;8.536;2023-07-02T07:04:30;2.83;;;0.82;;
53654;SDS011;39558;52.028;8.536;2023-07-02T07:06:55;1.35;;;0.82;;
53654;SDS011;39558;52.028;8.536;2023-07-02T07:09:22;2.30;;;0.93;;
53654;SDS011;39558;52.028;8.536;2023-07-02T07:11:48;2.10;;;0.95;;
53654;SDS011;39558;52.028;8.536;2023-07-02T07:14:13;2.28;;;1.02;;
53654;SDS011;39558;52.028;8.536;2023-07-02T07:16:39;1.67;;;0.93;;
53654;SDS011;39558;52.028;8.536;2023-07-02T07:19:05;1.92;;;0.90;;
53654;SDS011;39558;52.028;8.536;2023-07-02T07:21:32;2.05;;;0.95;;
53654;SDS011;39558;52.028;8.536;2023-07-02T07:23:58;1.30;;;0.82;;
53654;SDS011;39558;52.028;8.536;2023-07-02T07:26:24;2.72;;;1.05;;
53654;SDS011;39558;52.028;8.536;2023-07-02T07:28:50;1.13;;;0.75;;
53654;SDS011;39558;52.028;8.536;2023-07-02T07:31:15;1.35;;;0.70;;
53654;SDS011;39558;52.028;8.536;2023-07-02T07:33:41;2.08;;;0.90;;
53654;SDS011;39558;52.028;8.536;2023-07-02T07:36:07;2.05;;;0.98;;
53654;SDS011;39558;52.028;8.536;2023-07-02T07:38:33;1.95;;;0.85;;
53654;SDS011;39558;52.028;8.536;2023-07-02T07:40:59;1.75;;;0.70;;
53654;SDS011;39558;52.028;8.536;2023-07-02T07:43:25;3.42;;;1.67;;
53654;SDS011;39558;52.028;8.536;2023-07-02T07:45:51;1.83;;;0.90;;
53654;SDS011;39558;52.028;8.536;2023-07-02T07:48:17;2.50;;;1.27;;
53654;SDS011;39558;52.028;8.536;2023-07-02T07:50:43;2.90;;;0.82;;
53654;SDS011;39558;52.028;8.536;2023-07-02T07:53:08;2.08;;;0.90;;
53654;SDS011;39558;52.028;8.536;2023-07-02T07:55:34;2.20;;;1.00;;
53654;SDS011;39558;52.028;8.536;2023-07-02T07:58:00;2.20;;;1.00;;
53654;SDS011;39558;52.028;8.536;2023-07-02T08:00:26;3.05;;;1.10;;
53654;SDS011;39558;52.028;8.536;2023-07-02T08:02:52;2.58;;;1.30;;
53654;SDS011;39558;52.028;8.536;2023-07-02T08:05:20;2.63;;;1.17;;
53654;SDS011;39558;52.028;8.536;2023-07-02T08:07:46;4.00;;;1.23;;
53654;SDS011;39558;52.028;8.536;2023-07-02T08:10:12;2.00;;;0.90;;
53654;SDS011;39558;52.028;8.536;2023-07-02T08:12:38;2.00;;;1.10;;
53654;SDS011;39558;52.028;8.536;2023-07-02T08:15:04;3.90;;;1.25;;
53654;SDS011;39558;52.028;8.536;2023-07-02T08:17:30;3.58;;;1.17;;
53654;SDS011;39558;52.028;8.536;2023-07-02T08:19:56;2.22;;;1.15;;
53654;SDS011;39558;52.028;8.536;2023-07-02T08:22:22;1.40;;;0.80;;
53654;SDS011;39558;52.028;8.536;2023-07-02T08:24:48;2.15;;;0.90;;
53654;SDS011;39558;52.028;8.536;2023-07-02T08:27:15;1.90;;;1.02;;
53654;SDS011;39558;52.028;8.536;2023-07-02T08:29:43;2.57;;;1.00;;
53654;SDS011;39558;52.028;8.536;2023-07-02T08:32:09;2.17;;;1.20;;
53654;SDS011;39558;52.028;8.536;2023-07-02T08:34:35;2.28;;;1.02;;
53654;SDS011;39558;52.028;8.536;2023-07-02T08:37:01;1.58;;;1.08;;
53654;SDS011;39558;52.028;8.536;2023-07-02T08:39:27;2.00;;;0.95;;
53654;SDS011;39558;52.028;8.536;2023-07-02T08:41:53;1.63;;;0.90;;
53654;SDS011;39558;52.028;8.536;2023-07-02T08:44:19;1.98;;;1.05;;
53654;SDS011;39558;52.028;8.536;2023-07-02T08:46:46;2.45;;;1.30;;
53654;SDS011;39558;52.028;8.536;2023-07-02T08:49:15;2.03;;;1.30;;
53654;SDS011;39558;52.028;8.536;2023-07-02T08:51:42;1.90;;;0.88;;
53654;SDS011;39558;52.028;8.536;2023-07-02T08:54:09;3.13;;;0.98;;
53654;SDS011;39558;52.028;8.536;2023-07-02T08:56:35;1.95;;;1.13;;
53654;SDS011;39558;52.028;8.536;2023-07-02T08:59:01;2.17;;;1.15;;
53654;SDS011;39558;52.028;8.536;2023-07-02T09:01:27;2.30;;;1.10;;
53654;SDS011;39558;52.028;8.536;2023-07-02T09:03:58;1.90;;;1.02;;
53654;SDS011;39558;52.028;8.536;2023-07-02T09:06:25;2.80;;;1.23;;
53654;SDS011;39558;52.028;8.536;2023-07-02T09:08:51;2.40;;;1.10;;
53654;SDS011;39558;52.028;8.536;2023-07-02T09:11:17;2.30;;;1.25;;
53654;SDS011;39558;52.028;8.536;2023-07-02T09:13:48;2.38;;;1.30;;
53654;SDS011;39558;52.028;8.536;2023-07-02T09:16:21;1.65;;;0.90;;
53654;SDS011;39558;52.028;8.536;2023-07-02T09:19:00;2.13;;;1.10;;
53654;SDS011;39558;52.028;8.536;2023-07-02T09:21:26;3.03;;;1.33;;
53654;SDS011;39558;52.028;8.536;2023-07-02T09:23:53;2.92;;;1.30;;
53654;SDS011;39558;52.028;8.536;2023-07-02T09:26:20;3.20;;;1.52;;
53654;SDS011;39558;52.028;8.536;2023-07-02T09:28:46;3.90;;;1.52;;
53654;SDS011;39558;52.028;8.536;2023-07-02T09:31:12;2.22;;;1.20;;
53654;SDS011;39558;52.028;8.536;2023-07-02T09:33:37;2.58;;;1.40;;
53654;SDS011;39558;52.028;8.536;2023-07-02T09:36:03;3.83;;;1.70;;
53654;SDS011;39558;52.028;8.536;2023-07-02T09:38:29;3.13;;;1.08;;
53654;SDS011;39558;52.028;8.536;2023-07-02T09:40:55;3.05;;;1.40;;
53654;SDS011;39558;52.028;8.536;2023-07-02T09:43:21;4.28;;;1.60;;
53654;SDS011;39558;52.028;8.536;2023-07-02T09:45:48;3.92;;;1.80;;
53654;SDS011;39558;52.028;8.536;2023-07-02T09:48:15;2.58;;;1.38;;
53654;SDS011;39558;52.028;8.536;2023-07-02T09:50:44;3.25;;;1.33;;
53654;SDS011;39558;52.028;8.536;2023-07-02T09:55:37;3.38;;;1.48;;
53654;SDS011;39558;52.028;8.536;2023-07-02T09:58:04;3.40;;;1.30;;
53654;SDS011;39558;52.028;8.536;2023-07-02T10:00:30;3.00;;;1.35;;
53654;SDS011;39558;52.028;8.536;2023-07-02T10:02:56;2.67;;;1.52;;
53654;SDS011;39558;52.028;8.536;2023-07-02T10:05:29;3.03;;;1.40;;
53654;SDS011;39558;52.028;8.536;2023-07-02T10:07:58;3.72;;;1.70;;
53654;SDS011;39558;52.028;8.536;2023-07-02T10:10:31;3.80;;;1.58;;
53654;SDS011;39558;52.028;8.536;2023-07-02T10:12:57;3.47;;;1.80;;
53654;SDS011;39558;52.028;8.536;2023-07-02T10:15:26;3.85;;;1.35;;
53654;SDS011;39558;52.028;8.536;2023-07-02T10:17:56;3.08;;;1.65;;
53654;SDS011;39558;52.028;8.536;2023-07-02T10:20:35;5.03;;;2.00;;
53654;SDS011;39558;52.028;8.536;2023-07-02T10:23:02;4.25;;;1.67;;
53654;SDS011;39558;52.028;8.536;2023-07-02T10:25:29;3.10;;;1.52;;
53654;SDS011;39558;52.028;8.536;2023-07-02T10:27:55;3.78;;;1.52;;
53654;SDS011;39558;52.028;8.536;2023-07-02T10:30:31;3.63;;;1.80;;
53654;SDS011;39558;52.028;8.536;2023-07-02T10:33:07;3.22;;;1.40;;
53654;SDS011;39558;52.028;8.536;2023-07-02T10:35:36;3.50;;;1.60;;
53654;SDS011;39558;52.028;8.536;2023-07-02T10:38:03;4.22;;;1.63;;
53654;SDS011;39558;52.028;8.536;2023-07-02T10:40:29;3.35;;;1.42;;
53654;SDS011;39558;52.028;8.536;2023-07-02T10:42:55;4.97;;;1.75;;
53654;SDS011;39558;52.028;8.536;2023-07-02T10:45:30;3.50;;;1.70;;
53654;SDS011;39558;52.028;8.536;2023-07-02T10:47:56;3.10;;;1.50;;
53654;SDS011;39558;52.028;8.536;2023-07-02T10:50:22;4.63;;;1.73;;
53654;SDS011;39558;52.028;8.536;2023-07-02T10:52:48;3.25;;;1.90;;
53654;SDS011;39558;52.028;8.536;2023-07-02T10:55:21;4.23;;;1.93;;
53654;SDS011;39558;52.028;8.536;2023-07-02T10:57:48;4.95;;;2.00;;
53654;SDS011;39558;52.028;8.536;2023-07-02T11:00:17;5.03;;;2.47;;
53654;SDS011;39558;52.028;8.536;2023-07-02T11:02:44;5.90;;;2.00;;
53654;SDS011;39558;52.028;8.536;2023-07-02T11:05:10;6.00;;;2.40;;
53654;SDS011;39558;52.028;8.536;2023-07-02T11:07:39;4.72;;;1.95;;
53654;SDS011;39558;52.028;8.536;2023-07-02T11:10:06;3.92;;;1.92;;
53654;SDS011;39558;52.028;8.536;2023-07-02T11:12:32;6.40;;;1.80;;
53654;SDS011;39558;52.028;8.536;2023-07-02T11:15:11;3.78;;;1.75;;
53654;SDS011;39558;52.028;8.536;2023-07-02T11:17:37;5.03;;;2.00;;
53654;SDS011;39558;52.028;8.536;2023-07-02T11:20:04;4.72;;;2.05;;
53654;SDS011;39558;52.028;8.536;2023-07-02T11:22:31;6.22;;;2.53;;
53654;SDS011;39558;52.028;8.536;2023-07-02T11:24:58;4.40;;;2.00;;
53654;SDS011;39558;52.028;8.536;2023-07-02T11:27:33;4.43;;;1.90;;
53654;SDS011;39558;52.028;8.536;2023-07-02T11:29:59;6.65;;;2.67;;
53654;SDS011;39558;52.028;8.536;2023-07-02T11:32:25;8.35;;;2.83;;
53654;SDS011;39558;52.028;8.536;2023-07-02T11:34:54;6.25;;;2.25;;
53654;SDS011;39558;52.028;8.536;2023-07-02T11:37:21;5.30;;;2.70;;
53654;SDS011;39558;52.028;8.536;2023-07-02T11:39:47;5.57;;;2.35;;
53654;SDS011;39558;52.028;8.536;2023-07-02T11:42:14;5.07;;;2.42;;
53654;SDS011;39558;52.028;8.536;2023-07-02T11:44:40;5.88;;;2.33;;
53654;SDS011;39558;52.028;8.536;2023-07-02T11:47:06;6.15;;;2.67;;
53654;SDS011;39558;52.028;8.536;2023-07-02T11:49:32;6.10;;;2.50;;
53654;SDS011;39558;52.028;8.536;2023-07-02T11:51:57;5.63;;;2.30;;
53654;SDS011;39558;52.028;8.536;2023-07-02T11:54:23;6.43;;;2.88;;
53654;SDS011;39558;52.028;8.536;2023-07-02T11:56:49;5.00;;;2.55;;
53654;SDS011;39558;52.028;8.536;2023-07-02T11:59:15;5.88;;;3.05;;
53654;SDS011;39558;52.028;8.536;2023-07-02T12:01:41;4.70;;;2.05;;
53654;SDS011;39558;52.028;8.536;2023-07-02T12:04:09;9.25;;;2.95;;
53654;SDS011;39558;52.028;8.536;2023-07-02T12:06:36;9.23;;;2.85;;
53654;SDS011;39558;52.028;8.536;2023-07-02T12:09:02;8.82;;;3.10;;
53654;SDS011;39558;52.028;8.536;2023-07-02T12:11:28;4.28;;;2.33;;
53654;SDS011;39558;52.028;8.536;2023-07-02T12:13:54;5.25;;;2.45;;
53654;SDS011;39558;52.028;8.536;2023-07-02T12:16:20;5.15;;;2.65;;
53654;SDS011;39558;52.028;8.536;2023-07-02T12:18:46;6.50;;;2.53;;
53654;SDS011;39558;52.028;8.536;2023-07-02T12:21:12;7.63;;;2.55;;
53654;SDS011;39558;52.028;8.536;2023-07-02T12:23:37;3.72;;;2.20;;
53654;SDS011;39558;52.028;8.536;2023-07-02T12:26:03;6.53;;;2.60;;
53654;SDS011;39558;52.028;8.536;2023-07-02T12:28:29;6.28;;;2.67;;
53654;SDS011;39558;52.028;8.536;2023-07-02T12:30:55;7.45;;;2.75;;
53654;SDS011;39558;52.028;8.536;2023-07-02T12:33:21;4.60;;;2.33;;
53654;SDS011;39558;52.028;8.536;2023-07-02T12:35:47;5.28;;;2.55;;
53654;SDS011;39558;52.028;8.536;2023-07-02T12:38:13;4.85;;;2.38;;
53654;SDS011;39558;52.028;8.536;2023-07-02T12:40:39;7.15;;;3.00;;
53654;SDS011;39558;52.028;8.536;2023-07-02T12:43:05;4.72;;;2.55;;
53654;SDS011;39558;52.028;8.536;2023-07-02T12:45:30;5.07;;;2.55;;
53654;SDS011;39558;52.028;8.536;2023-07-02T12:47:56;5.65;;;2.42;;
53654;SDS011;39558;52.028;8.536;2023-07-02T12:50:23;9.30;;;3.85;;
53654;SDS011;39558;52.028;8.536;2023-07-02T12:52:48;6.97;;;2.85;;
53654;SDS011;39558;52.028;8.536;2023-07-02T12:55:14;6.82;;;3.30;;
53654;SDS011;39558;52.028;8.536;2023-07-02T12:57:40;5.35;;;2.72;;
53654;SDS011;39558;52.028;8.536;2023-07-02T13:00:06;6.43;;;2.55;;
53654;SDS011;39558;52.028;8.536;2023-07-02T13:02:33;4.15;;;2.03;;
53654;SDS011;39558;52.028;8.536;2023-07-02T13:04:59;5.95;;;2.58;;
53654;SDS011;39558;52.028;8.536;2023-07-02T13:07:25;5.85;;;3.00;;
53654;SDS011;39558;52.028;8.536;2023-07-02T13:09:52;7.13;;;2.65;;
53654;SDS011;39558;52.028;8.536;2023-07-02T13:12:18;5.70;;;2.63;;
53654;SDS011;39558;52.028;8.536;2023-07-02T13:14:44;8.32;;;3.28;;
53654;SDS011;39558;52.028;8.536;2023-07-02T13:17:10;5.78;;;2.75;;
53654;SDS011;39558;52.028;8.536;2023-07-02T13:19:36;6.22;;;2.30;;
53654;SDS011;39558;52.028;8.536;2023-07-02T13:22:02;7.47;;;2.58;;
53654;SDS011;39558;52.028;8.536;2023-07-02T13:24:32;6.38;;;2.88;;
53654;SDS011;39558;52.028;8.536;2023-07-02T13:27:00;5.03;;;2.40;;
53654;SDS011;39558;52.028;8.536;2023-07-02T13:29:27;8.40;;;3.53;;
53654;SDS011;39558;52.028;8.536;2023-07-02T13:31:53;6.82;;;3.30;;
53654;SDS011;39558;52.028;8.536;2023-07-02T13:34:19;6.78;;;2.92;;
53654;SDS011;39558;52.028;8.536;2023-07-02T13:36:45;7.80;;;3.20;;
53654;SDS011;39558;52.028;8.536;2023-07-02T13:39:11;6.10;;;2.70;;
53654;SDS011;39558;52.028;8.536;2023-07-02T13:41:36;6.95;;;2.65;;
53654;SDS011;39558;52.028;8.536;2023-07-02T13:44:02;6.65;;;2.60;;
53654;SDS011;39558;52.028;8.536;2023-07-02T13:46:28;4.32;;;2.42;;
53654;SDS011;39558;52.028;8.536;2023-07-02T13:48:54;6.45;;;2.92;;
53654;SDS011;39558;52.028;8.536;2023-07-02T13:51:20;6.70;;;3.08;;
53654;SDS011;39558;52.028;8.536;2023-07-02T13:53:46;6.18;;;2.88;;
53654;SDS011;39558;52.028;8.536;2023-07-02T13:56:12;5.78;;;3.10;;
53654;SDS011;39558;52.028;8.536;2023-07-02T13:58:58;5.65;;;2.58;;
53654;SDS011;39558;52.028;8.536;2023-07-02T14:01:24;6.20;;;3.15;;
53654;SDS011;39558;52.028;8.536;2023-07-02T14:03:50;7.18;;;3.17;;
53654;SDS011;39558;52.028;8.536;2023-07-02T14:06:17;7.97;;;3.33;;
53654;SDS011;39558;52.028;8.536;2023-07-02T14:08:43;5.90;;;2.40;;
53654;SDS011;39558;52.028;8.536;2023-07-02T14:11:09;6.40;;;3.30;;
53654;SDS011;39558;52.028;8.536;2023-07-02T14:13:35;5.65;;;3.25;;
53654;SDS011;39558;52.028;8.536;2023-07-02T14:16:01;5.55;;;2.75;;
53654;SDS011;39558;52.028;8.536;2023-07-02T14:18:27;7.60;;;3.35;;
53654;SDS011;39558;52.028;8.536;2023-07-02T14:20:52;5.60;;;2.90;;
53654;SDS011;39558;52.028;8.536;2023-07-02T14:23:18;6.18;;;2.97;;
53654;SDS011;39558;52.028;8.536;2023-07-02T14:25:44;6.97;;;3.45;;
53654;SDS011;39558;52.028;8.536;2023-07-02T14:28:10;5.60;;;2.33;;
53654;SDS011;39558;52.028;8.536;2023-07-02T14:30:36;8.98;;;3.65;;
53654;SDS011;39558;52.028;8.536;2023-07-02T14:33:02;5.32;;;2.95;;
53654;SDS011;39558;52.028;8.536;2023-07-02T14:35:28;6.53;;;2.80;;
53654;SDS011;39558;52.028;8.536;2023-07-02T14:37:55;6.97;;;2.70;;
53654;SDS011;39558;52.028;8.536;2023-07-02T14:40:21;7.35;;;3.55;;
53654;SDS011;39558;52.028;8.536;2023-07-02T14:42:47;7.60;;;2.83;;
53654;SDS011;39558;52.028;8.536;2023-07-02T14:45:13;7.50;;;3.20;;
53654;SDS011;39558;52.028;8.536;2023-07-02T14:47:39;4.70;;;2.30;;